Time;durP1;ratioP1;P1;durP2;ratioP2;P2;SDS_P1;SDS_P2;PMS_P1;PMS_P2;Temp;Humidity;BMP_temperature;BMP_pressure;BME280_temperature;BME280_humidity;BME280_pressure;Samples;Min_cycle;Max_cycle;Signal;HPM_P1;HPM_P2
2023/03/16 00:01:05;;;;;;;2.88;0.60;;;24.40;65.50;;;;;;5129984;27;20062;-64
2023/03/16 00:03:32;;;;;;;4.05;0.90;;;24.60;65.10;;;;;;5128795;27;20075;-63
2023/03/16 00:05:58;;;;;;;4.65;0.70;;;24.70;64.90;;;;;;5129341;27;20070;-61
2023/03/16 00:08:25;;;;;;;2.15;0.63;;;24.70;64.80;;;;;;5132317;27;20091;-61
2023/03/16 00:10:53;;;;;;;1.70;0.80;;;24.60;63.60;;;;;;5131422;27;20624;-62
2023/03/16 00:13:22;;;;;;;1.33;0.85;;;24.50;63.60;;;;;;5130473;27;20075;-61
2023/03/16 00:15:54;;;;;;;3.25;0.70;;;24.60;63.40;;;;;;5132173;27;20079;-64
2023/03/16 00:18:25;;;;;;;2.22;0.70;;;24.80;62.10;;;;;;5132425;27;20153;-60
2023/03/16 00:21:02;;;;;;;1.80;0.70;;;24.90;62.20;;;;;;5132130;27;20102;-63
2023/03/16 00:23:34;;;;;;;1.60;1.05;;;24.90;61.50;;;;;;5130640;27;20066;-60
2023/03/16 00:26:03;;;;;;;4.10;1.00;;;24.80;61.90;;;;;;5131860;27;20070;-63
2023/03/16 00:28:34;;;;;;;3.95;0.68;;;24.80;62.20;;;;;;5131055;27;20073;-63
2023/03/16 00:31:05;;;;;;;4.63;1.25;;;24.80;61.70;;;;;;5130023;27;20082;-62
2023/03/16 00:33:34;;;;;;;5.78;1.48;;;24.80;61.30;;;;;;5130283;27;20569;-62
2023/03/16 00:36:01;;;;;;;3.75;0.90;;;24.90;61.80;;;;;;5130196;27;20140;-62
2023/03/16 00:38:30;;;;;;;17.20;1.15;;;24.80;60.30;;;;;;5128598;27;20091;-62
2023/03/16 00:40:56;;;;;;;6.40;1.20;;;24.60;60.50;;;;;;5130582;27;20159;-63
2023/03/16 00:43:26;;;;;;;2.85;0.63;;;24.60;61.10;;;;;;5130950;27;20095;-63
2023/03/16 00:46:05;;;;;;;3.47;0.75;;;24.50;61.00;;;;;;5130873;27;20094;-62
2023/03/16 00:48:36;;;;;;;3.20;0.90;;;24.40;61.70;;;;;;5127320;27;20085;-63
2023/03/16 00:51:05;;;;;;;7.07;0.90;;;24.50;61.30;;;;;;5131058;27;20114;-62
2023/03/16 00:53:35;;;;;;;4.80;0.93;;;24.50;61.80;;;;;;5129767;27;20089;-61
2023/03/16 00:56:03;;;;;;;7.65;0.82;;;24.50;60.90;;;;;;5129301;27;20091;-63
2023/03/16 00:58:35;;;;;;;5.22;0.70;;;24.50;60.90;;;;;;5127208;27;20094;-62
2023/03/16 01:01:06;;;;;;;4.00;0.85;;;24.40;61.20;;;;;;5128604;27;20153;-63
2023/03/16 01:03:34;;;;;;;3.72;0.60;;;24.50;61.60;;;;;;5130896;27;20066;-61
2023/03/16 01:06:10;;;;;;;2.63;0.60;;;24.30;61.90;;;;;;5130876;27;20426;-61
2023/03/16 01:08:37;;;;;;;1.10;0.57;;;24.30;62.10;;;;;;5129835;27;20090;-61
2023/03/16 01:11:15;;;;;;;4.40;0.50;;;24.30;60.80;;;;;;5130645;22;20116;-62
2023/03/16 01:13:41;;;;;;;6.55;0.90;;;24.20;60.80;;;;;;5102964;28;21215;-62
2023/03/16 01:16:09;;;;;;;4.93;1.50;;;24.20;60.60;;;;;;5103834;28;20091;-62
2023/03/16 01:18:35;;;;;;;2.00;0.80;;;24.20;60.00;;;;;;5101755;28;20063;-64
2023/03/16 01:21:04;;;;;;;1.55;0.70;;;24.10;61.20;;;;;;5102753;28;20122;-62
2023/03/16 01:23:30;;;;;;;5.20;0.63;;;24.00;60.60;;;;;;5102858;28;20063;-62
2023/03/16 01:25:58;;;;;;;5.05;0.90;;;24.00;60.50;;;;;;5105529;28;20124;-65
2023/03/16 01:28:27;;;;;;;4.38;1.10;;;23.90;60.20;;;;;;5107288;28;20519;-62
2023/03/16 01:30:57;;;;;;;3.83;1.00;;;23.80;60.20;;;;;;5102553;28;20082;-64
2023/03/16 01:33:26;;;;;;;6.03;1.08;;;23.70;60.00;;;;;;5108043;28;20595;-61
2023/03/16 01:35:57;;;;;;;3.50;1.00;;;23.60;60.50;;;;;;5106893;28;20166;-61
2023/03/16 01:38:24;;;;;;;6.75;1.27;;;23.40;61.30;;;;;;5109211;28;20173;-62
2023/03/16 01:40:53;;;;;;;11.68;0.85;;;23.40;62.30;;;;;;5102994;28;20075;-62
2023/03/16 01:43:25;;;;;;;4.80;0.90;;;23.20;62.90;;;;;;5106164;28;20087;-62
2023/03/16 01:46:04;;;;;;;3.05;1.27;;;23.20;62.80;;;;;;5103563;28;20083;-62
2023/03/16 01:48:52;;;;;;;3.75;1.00;;;23.10;63.30;;;;;;5104279;28;20451;-63
2023/03/16 01:51:23;;;;;;;3.72;0.68;;;23.00;65.10;;;;;;5100175;28;20067;-61
2023/03/16 01:53:53;;;;;;;4.95;0.93;;;22.80;67.70;;;;;;5105808;28;20114;-62
2023/03/16 01:56:33;;;;;;;4.60;1.15;;;22.60;68.90;;;;;;5077931;28;20094;-63
2023/03/16 01:59:05;;;;;;;10.38;1.73;;;22.40;70.00;;;;;;5105672;28;20461;-65
2023/03/16 02:01:32;;;;;;;7.95;0.93;;;22.40;70.60;;;;;;5098046;28;20078;-65
2023/03/16 02:04:13;;;;;;;3.47;0.82;;;22.30;69.50;;;;;;5099253;28;20098;-63
2023/03/16 02:06:40;;;;;;;2.80;0.70;;;22.20;69.60;;;;;;5104833;28;20083;-63
2023/03/16 02:09:08;;;;;;;5.03;0.60;;;22.10;71.50;;;;;;5099972;28;20067;-62
2023/03/16 02:11:35;;;;;;;4.50;0.80;;;21.90;72.50;;;;;;5107882;28;20105;-62
2023/03/16 02:14:08;;;;;;;4.75;0.73;;;21.70;73.20;;;;;;5104935;28;20067;-64
2023/03/16 02:16:34;;;;;;;3.85;0.82;;;21.60;73.30;;;;;;5103258;28;20450;-64
2023/03/16 02:19:01;;;;;;;4.28;0.73;;;21.60;73.90;;;;;;5107912;28;20170;-65
2023/03/16 02:22:05;;;;;;;5.93;1.02;;;21.60;74.20;;;;;;5104652;28;20079;-64
2023/03/16 02:24:32;;;;;;;2.60;1.10;;;21.60;74.70;;;;;;5108052;28;20073;-67
2023/03/16 02:27:06;;;;;;;4.15;0.80;;;21.50;74.10;;;;;;5109045;28;20565;-65
2023/03/16 02:29:51;;;;;;;2.65;0.75;;;21.50;74.00;;;;;;5108383;28;20573;-65
2023/03/16 02:32:20;;;;;;;4.82;0.98;;;21.50;73.50;;;;;;5086081;28;20448;-64
2023/03/16 02:34:47;;;;;;;2.95;1.20;;;21.50;73.60;;;;;;5108345;28;20063;-64
2023/03/16 02:37:13;;;;;;;3.20;1.05;;;21.40;73.80;;;;;;5109931;28;20101;-67
2023/03/16 02:39:42;;;;;;;2.90;0.90;;;21.40;74.50;;;;;;5109325;28;20531;-63
2023/03/16 02:42:16;;;;;;;3.30;0.98;;;21.40;75.30;;;;;;5112490;28;20094;-64
2023/03/16 02:44:47;;;;;;;10.52;1.20;;;21.40;75.40;;;;;;5112606;28;20570;-64
2023/03/16 02:47:34;;;;;;;2.60;0.80;;;21.30;76.50;;;;;;5110296;28;20067;-63
2023/03/16 02:50:05;;;;;;;9.55;1.00;;;21.30;76.20;;;;;;5111049;28;20078;-67
2023/03/16 02:52:36;;;;;;;1.48;0.85;;;21.20;76.20;;;;;;5110981;28;20078;-63
2023/03/16 02:55:05;;;;;;;2.97;0.75;;;21.20;76.00;;;;;;5113977;28;20077;-65
2023/03/16 02:57:31;;;;;;;1.15;0.63;;;21.20;75.30;;;;;;5112507;28;20060;-63
2023/03/16 02:59:58;;;;;;;1.88;0.60;;;21.10;75.40;;;;;;5109661;28;20155;-66
2023/03/16 03:02:24;;;;;;;2.95;0.60;;;21.10;75.20;;;;;;5111375;28;20068;-64
2023/03/16 03:04:53;;;;;;;2.85;0.60;;;21.00;75.30;;;;;;5088669;28;20075;-64
2023/03/16 03:07:20;;;;;;;2.30;0.77;;;20.90;75.50;;;;;;5110059;28;20067;-63
2023/03/16 03:09:47;;;;;;;6.85;1.20;;;20.90;74.90;;;;;;5108120;28;20132;-63
2023/03/16 03:12:13;;;;;;;8.00;0.80;;;20.70;74.10;;;;;;5108946;28;20099;-66
2023/03/16 03:14:40;;;;;;;3.10;0.70;;;20.70;74.80;;;;;;5112090;27;20075;-65
2023/03/16 03:17:09;;;;;;;4.80;0.90;;;20.70;74.70;;;;;;5111568;28;20176;-63
2023/03/16 03:19:36;;;;;;;4.90;0.73;;;20.60;74.10;;;;;;5110283;28;20083;-65
2023/03/16 03:22:05;;;;;;;14.70;7.00;;;20.60;73.80;;;;;;5110753;28;20067;-66
2023/03/16 03:24:35;;;;;;;2.95;1.15;;;20.60;74.40;;;;;;5111194;28;20071;-64
2023/03/16 03:27:04;;;;;;;5.93;0.73;;;20.60;74.40;;;;;;5112253;28;20075;-64
2023/03/16 03:29:34;;;;;;;3.10;0.90;;;20.50;74.10;;;;;;5110567;28;20067;-66
2023/03/16 03:32:02;;;;;;;4.72;0.60;;;20.50;73.90;;;;;;5111493;28;20067;-67
2023/03/16 03:34:30;;;;;;;3.47;0.47;;;20.50;74.10;;;;;;5110685;28;20071;-63
2023/03/16 03:36:57;;;;;;;3.78;0.60;;;20.50;74.20;;;;;;5110731;28;20085;-64
2023/03/16 03:39:24;;;;;;;0.70;0.50;;;20.50;74.40;;;;;;5111002;28;20531;-65
2023/03/16 03:41:53;;;;;;;5.78;0.60;;;20.40;74.20;;;;;;5109450;28;20081;-63
2023/03/16 03:44:21;;;;;;;2.47;0.50;;;20.40;73.70;;;;;;5111034;28;20068;-64
2023/03/16 03:46:48;;;;;;;1.50;0.50;;;20.40;73.80;;;;;;5109194;28;20071;-66
2023/03/16 03:49:15;;;;;;;2.28;1.10;;;20.40;73.50;;;;;;5109082;28;20071;-63
2023/03/16 03:51:41;;;;;;;2.50;0.80;;;20.30;73.60;;;;;;5109550;28;20071;-66
2023/03/16 03:54:08;;;;;;;2.17;0.60;;;20.30;73.80;;;;;;5110929;28;20547;-65
2023/03/16 03:56:35;;;;;;;6.38;2.78;;;20.30;73.90;;;;;;5112334;27;20427;-66
2023/03/16 03:59:01;;;;;;;6.15;2.97;;;20.40;74.50;;;;;;5110520;28;20067;-65
2023/03/16 04:01:28;;;;;;;6.95;3.65;;;20.30;74.70;;;;;;5110603;28;20171;-66
2023/03/16 04:03:54;;;;;;;5.50;3.95;;;20.10;75.00;;;;;;5110400;28;20079;-64
2023/03/16 04:06:20;;;;;;;3.20;1.33;;;20.10;75.60;;;;;;5109821;28;20158;-67
2023/03/16 04:08:47;;;;;;;5.18;1.42;;;20.00;75.50;;;;;;5108763;28;20150;-63
2023/03/16 04:11:13;;;;;;;3.15;1.42;;;20.00;75.40;;;;;;5108723;28;20119;-65
2023/03/16 04:13:40;;;;;;;3.35;1.67;;;20.00;75.40;;;;;;5108856;28;20596;-65
2023/03/16 04:16:06;;;;;;;4.20;1.35;;;20.00;75.40;;;;;;5106938;28;20143;-66
2023/03/16 04:18:37;;;;;;;3.92;0.95;;;20.10;75.30;;;;;;5106230;28;20059;-63
2023/03/16 04:21:11;;;;;;;2.13;0.82;;;20.10;75.30;;;;;;5073781;28;20454;-64
2023/03/16 04:23:38;;;;;;;2.67;0.57;;;20.10;75.40;;;;;;5101032;28;20183;-66
2023/03/16 04:26:04;;;;;;;2.95;0.70;;;20.10;75.50;;;;;;5106762;28;20090;-65
2023/03/16 04:28:31;;;;;;;2.28;0.50;;;20.00;76.80;;;;;;5108777;28;20075;-67
2023/03/16 04:31:03;;;;;;;4.93;0.60;;;19.80;76.10;;;;;;5107988;28;20098;-71
2023/03/16 04:33:31;;;;;;;5.10;0.68;;;19.70;76.70;;;;;;5094928;28;20099;-64
2023/03/16 04:35:58;;;;;;;3.33;0.90;;;19.70;77.00;;;;;;5108284;28;20181;-65
2023/03/16 04:38:24;;;;;;;2.22;1.05;;;19.60;77.30;;;;;;5105696;28;20067;-66
2023/03/16 04:40:51;;;;;;;2.70;0.80;;;19.60;77.70;;;;;;5109536;28;20154;-66
2023/03/16 04:43:17;;;;;;;1.13;0.70;;;19.50;78.50;;;;;;5110023;28;20118;-66
2023/03/16 04:45:44;;;;;;;7.32;0.80;;;19.50;78.90;;;;;;5106294;28;20063;-65
2023/03/16 04:48:10;;;;;;;6.82;1.05;;;19.50;78.20;;;;;;5108175;28;20066;-65
2023/03/16 04:50:36;;;;;;;11.18;1.08;;;19.50;78.40;;;;;;5109103;28;20083;-67
2023/03/16 04:53:03;;;;;;;6.38;1.40;;;19.40;78.10;;;;;;5107759;28;20102;-65
2023/03/16 04:55:30;;;;;;;3.20;1.90;;;19.40;78.20;;;;;;5109256;28;20182;-61
2023/03/16 04:57:57;;;;;;;3.72;1.50;;;19.30;78.10;;;;;;5109328;28;20086;-66
2023/03/16 05:00:23;;;;;;;4.22;0.95;;;19.30;78.30;;;;;;5109686;28;20534;-69
2023/03/16 05:02:51;;;;;;;3.38;1.17;;;19.20;78.30;;;;;;5105637;28;20561;-65
2023/03/16 05:05:18;;;;;;;11.05;1.25;;;19.10;77.90;;;;;;5110637;28;20067;-67
2023/03/16 05:07:44;;;;;;;3.47;1.10;;;19.10;77.80;;;;;;5109603;28;20074;-65
2023/03/16 05:10:13;;;;;;;10.68;1.40;;;19.10;77.20;;;;;;5106093;28;20907;-67
2023/03/16 05:12:39;;;;;;;2.97;1.13;;;19.20;76.10;;;;;;5112156;28;20114;-64
2023/03/16 05:15:07;;;;;;;4.28;0.70;;;19.10;75.40;;;;;;5108684;28;20531;-70
2023/03/16 05:17:34;;;;;;;7.65;0.88;;;19.10;75.60;;;;;;5104241;28;20549;-69
2023/03/16 05:20:03;;;;;;;9.55;1.20;;;19.10;75.60;;;;;;5106243;28;20094;-68
2023/03/16 05:22:30;;;;;;;12.73;1.48;;;19.00;76.10;;;;;;5105822;28;20540;-64
2023/03/16 05:24:56;;;;;;;14.57;1.13;;;19.00;76.20;;;;;;5104851;28;20128;-67
2023/03/16 05:27:23;;;;;;;16.40;1.50;;;18.90;75.90;;;;;;5106466;28;20427;-65
2023/03/16 05:29:49;;;;;;;12.35;1.83;;;18.80;74.60;;;;;;5104051;28;20074;-66
2023/03/16 05:32:16;;;;;;;9.38;1.10;;;18.80;74.40;;;;;;5108659;28;20533;-65
2023/03/16 05:34:43;;;;;;;17.73;1.65;;;18.80;72.90;;;;;;5108942;28;20071;-67
2023/03/16 05:37:09;;;;;;;17.73;1.40;;;18.80;71.30;;;;;;5108659;28;20132;-63
2023/03/16 05:39:36;;;;;;;10.23;1.23;;;18.80;71.50;;;;;;5108573;28;20108;-62
2023/03/16 05:42:04;;;;;;;6.70;1.05;;;18.80;72.10;;;;;;5107502;28;20071;-62
2023/03/16 05:44:32;;;;;;;7.50;1.20;;;18.70;72.60;;;;;;5107429;28;20092;-61
2023/03/16 05:46:58;;;;;;;5.70;1.23;;;18.70;72.80;;;;;;5107869;28;20073;-59
2023/03/16 05:49:25;;;;;;;6.70;1.10;;;18.70;73.20;;;;;;5108214;28;20090;-56
2023/03/16 05:51:51;;;;;;;5.40;1.17;;;18.70;73.40;;;;;;5108598;28;20523;-56
2023/03/16 05:54:18;;;;;;;6.28;1.33;;;18.70;73.30;;;;;;5108255;28;20715;-58
2023/03/16 05:56:44;;;;;;;8.73;1.73;;;18.70;73.50;;;;;;5109541;28;20083;-57
2023/03/16 05:59:10;;;;;;;4.82;1.20;;;18.60;74.00;;;;;;5107255;28;20075;-60
2023/03/16 06:01:38;;;;;;;6.95;1.75;;;18.50;74.20;;;;;;5104168;28;20926;-59
2023/03/16 06:04:06;;;;;;;13.02;1.40;;;18.60;74.30;;;;;;5105196;28;20612;-59
2023/03/16 06:06:32;;;;;;;9.65;1.40;;;18.60;74.00;;;;;;5106840;28;20079;-60
2023/03/16 06:09:00;;;;;;;6.68;1.20;;;18.50;73.50;;;;;;5107185;28;20566;-59
2023/03/16 06:11:26;;;;;;;4.90;1.00;;;18.40;73.90;;;;;;5098676;28;20193;-59
2023/03/16 06:13:54;;;;;;;8.27;1.08;;;18.30;73.50;;;;;;5105822;28;20455;-58
2023/03/16 06:16:20;;;;;;;5.22;1.20;;;18.30;73.70;;;;;;5076562;28;20094;-58
2023/03/16 06:18:47;;;;;;;7.70;1.25;;;18.40;73.80;;;;;;5099869;28;20426;-56
2023/03/16 06:21:13;;;;;;;9.07;0.80;;;18.30;73.50;;;;;;5105586;28;20114;-57
2023/03/16 06:23:39;;;;;;;5.93;0.88;;;18.20;73.30;;;;;;5085200;28;20504;-55
2023/03/16 06:26:06;;;;;;;3.22;0.90;;;18.20;72.90;;;;;;5104790;28;20074;-59
2023/03/16 06:28:32;;;;;;;3.72;0.90;;;18.20;72.80;;;;;;5102130;28;20436;-56
2023/03/16 06:30:59;;;;;;;3.45;0.90;;;18.20;72.20;;;;;;5112003;28;20066;-56
2023/03/16 06:33:26;;;;;;;6.45;0.85;;;18.20;71.70;;;;;;5108795;28;20079;-57
2023/03/16 06:35:52;;;;;;;21.02;1.25;;;18.20;71.10;;;;;;5105894;28;20871;-57
2023/03/16 06:38:19;;;;;;;4.45;0.85;;;18.20;70.50;;;;;;5106347;28;20075;-57
2023/03/16 06:40:50;;;;;;;3.58;1.00;;;18.30;70.60;;;;;;5103788;28;20067;-56
2023/03/16 06:43:16;;;;;;;1.95;0.75;;;18.20;70.70;;;;;;5107670;28;20554;-60
2023/03/16 06:45:43;;;;;;;2.78;0.90;;;18.20;70.50;;;;;;5087339;28;20079;-57
2023/03/16 06:48:10;;;;;;;3.78;0.80;;;18.20;70.80;;;;;;5098181;28;20124;-57
2023/03/16 06:50:36;;;;;;;10.20;1.00;;;18.20;70.70;;;;;;5106832;28;20102;-58
2023/03/16 06:53:03;;;;;;;9.07;0.88;;;18.20;70.40;;;;;;5108457;28;20082;-58
2023/03/16 06:55:30;;;;;;;9.52;1.15;;;18.20;70.70;;;;;;5101840;28;20083;-58
2023/03/16 06:57:56;;;;;;;4.05;0.70;;;18.20;71.10;;;;;;5103386;28;20067;-58
2023/03/16 07:00:23;;;;;;;3.20;0.70;;;18.10;71.20;;;;;;5083656;28;20079;-57
2023/03/16 07:02:50;;;;;;;4.20;0.90;;;18.00;71.80;;;;;;5102144;28;20563;-55
2023/03/16 07:05:16;;;;;;;6.30;0.80;;;17.80;71.70;;;;;;5102892;28;20435;-57
2023/03/16 07:07:44;;;;;;;6.95;0.80;;;17.70;71.50;;;;;;5083904;28;20444;-57
2023/03/16 07:10:12;;;;;;;4.50;0.70;;;17.60;71.30;;;;;;5100710;28;20150;-57
2023/03/16 07:12:39;;;;;;;19.98;10.32;;;17.70;70.20;;;;;;5103399;28;20121;-59
2023/03/16 07:15:06;;;;;;;18.50;11.05;;;17.70;69.60;;;;;;5101053;28;20076;-57
2023/03/16 07:17:33;;;;;;;1.55;0.68;;;17.70;69.40;;;;;;5103894;27;20467;-57
2023/03/16 07:19:59;;;;;;;1.67;0.60;;;17.80;68.80;;;;;;5111213;27;20451;-56
2023/03/16 07:22:26;;;;;;;2.00;0.60;;;17.80;68.70;;;;;;5107126;27;20162;-59
2023/03/16 07:24:56;;;;;;;2.13;0.75;;;17.80;68.60;;;;;;5107442;27;20068;-56
2023/03/16 07:27:23;;;;;;;2.35;0.88;;;17.80;68.40;;;;;;5111726;27;20079;-56
2023/03/16 07:29:53;;;;;;;1.77;0.73;;;17.80;68.60;;;;;;5106526;27;20668;-56
2023/03/16 07:32:20;;;;;;;2.15;0.70;;;17.70;68.40;;;;;;5102770;28;20109;-58
2023/03/16 07:34:47;;;;;;;4.40;0.75;;;17.80;68.90;;;;;;5108118;28;20424;-57
2023/03/16 07:37:15;;;;;;;1.63;0.70;;;17.80;68.80;;;;;;5103989;28;20171;-56
2023/03/16 07:39:42;;;;;;;4.07;0.60;;;17.70;68.10;;;;;;5111808;27;20074;-57
2023/03/16 07:42:09;;;;;;;1.75;0.60;;;17.80;67.60;;;;;;5108775;27;20071;-61
2023/03/16 07:44:35;;;;;;;1.85;0.60;;;17.80;68.20;;;;;;5105262;28;20063;-55
2023/03/16 07:47:01;;;;;;;2.90;0.70;;;17.80;68.10;;;;;;5111766;27;20527;-56
2023/03/16 07:49:28;;;;;;;0.82;0.50;;;17.70;68.40;;;;;;5104308;28;20220;-55
2023/03/16 07:51:54;;;;;;;1.63;0.50;;;17.70;68.60;;;;;;5107717;27;20067;-54
2023/03/16 07:54:23;;;;;;;1.02;0.68;;;17.60;68.80;;;;;;5110282;27;20543;-56
2023/03/16 07:56:50;;;;;;;1.10;0.73;;;17.60;68.50;;;;;;5106905;27;20090;-56
2023/03/16 07:59:16;;;;;;;2.20;0.75;;;17.50;68.80;;;;;;5106261;27;20562;-57
2023/03/16 08:01:43;;;;;;;1.60;0.70;;;17.60;69.10;;;;;;5106152;27;20558;-57
2023/03/16 08:04:11;;;;;;;1.73;0.60;;;17.50;69.20;;;;;;5104368;28;20534;-57
2023/03/16 08:06:37;;;;;;;1.85;0.70;;;17.60;68.90;;;;;;5105385;28;20104;-58
2023/03/16 08:09:04;;;;;;;0.90;0.70;;;17.50;68.80;;;;;;5101887;28;20079;-56
2023/03/16 08:11:31;;;;;;;0.75;0.60;;;17.50;68.80;;;;;;5112347;27;20112;-57
2023/03/16 08:13:57;;;;;;;3.45;0.82;;;17.40;70.10;;;;;;5106153;27;20201;-58
2023/03/16 08:16:27;;;;;;;2.40;1.20;;;17.40;69.60;;;;;;5100937;28;20091;-57
2023/03/16 08:18:56;;;;;;;5.82;1.25;;;17.40;69.90;;;;;;5106901;27;20072;-57
2023/03/16 08:21:23;;;;;;;4.65;0.80;;;17.40;69.80;;;;;;5108177;27;20092;-57
2023/03/16 08:23:50;;;;;;;2.67;0.85;;;17.40;70.00;;;;;;5113669;27;20063;-58
2023/03/16 08:26:18;;;;;;;1.77;0.68;;;17.40;69.80;;;;;;5107812;27;20094;-57
2023/03/16 08:28:46;;;;;;;1.20;0.60;;;17.40;69.90;;;;;;5108158;27;20087;-57
2023/03/16 08:31:15;;;;;;;0.60;0.60;;;17.40;69.60;;;;;;5102273;28;20431;-57
2023/03/16 08:33:46;;;;;;;0.73;0.50;;;17.40;69.30;;;;;;5109607;27;20086;-56
2023/03/16 08:36:14;;;;;;;1.83;0.68;;;17.40;69.80;;;;;;5103446;28;20088;-59
2023/03/16 08:38:42;;;;;;;1.92;0.77;;;17.30;69.60;;;;;;5105229;27;20554;-58
2023/03/16 08:41:08;;;;;;;2.42;0.63;;;17.30;70.40;;;;;;5104415;27;20076;-60
2023/03/16 08:43:36;;;;;;;0.40;0.38;;;17.30;70.50;;;;;;5111505;27;20188;-59
2023/03/16 08:46:04;;;;;;;3.55;0.85;;;17.20;70.50;;;;;;5110149;27;20073;-57
2023/03/16 08:48:35;;;;;;;4.85;1.15;;;17.20;70.70;;;;;;5102963;28;20059;-58
2023/03/16 08:51:03;;;;;;;3.13;0.82;;;17.20;71.50;;;;;;5108949;27;20122;-58
2023/03/16 08:53:29;;;;;;;0.82;0.70;;;17.10;70.80;;;;;;5110425;27;20068;-61
2023/03/16 08:56:05;;;;;;;1.73;0.60;;;17.10;71.50;;;;;;5101174;28;20083;-57
2023/03/16 08:58:33;;;;;;;0.98;0.50;;;17.00;72.30;;;;;;5104719;28;20079;-57
2023/03/16 09:01:04;;;;;;;0.77;0.60;;;16.80;73.00;;;;;;5110044;27;20067;-58
2023/03/16 09:03:33;;;;;;;3.80;0.85;;;16.90;73.40;;;;;;5083969;28;20087;-57
2023/03/16 09:06:02;;;;;;;10.13;0.90;;;16.90;73.50;;;;;;5100032;28;20080;-57
2023/03/16 09:08:29;;;;;;;1.77;0.60;;;16.90;73.70;;;;;;5102192;28;20133;-57
2023/03/16 09:11:02;;;;;;;0.70;0.50;;;16.80;73.60;;;;;;5102023;27;20103;-58
2023/03/16 09:13:29;;;;;;;3.47;0.60;;;16.90;73.80;;;;;;5092322;27;20076;-53
2023/03/16 09:15:56;;;;;;;3.28;0.60;;;16.80;73.20;;;;;;5110942;27;20079;-58
2023/03/16 09:18:25;;;;;;;0.52;0.40;;;16.70;73.50;;;;;;5112239;27;20114;-56
2023/03/16 09:20:56;;;;;;;2.30;0.60;;;16.60;74.10;;;;;;5112356;27;20091;-57
2023/03/16 09:23:23;;;;;;;1.00;0.50;;;16.50;74.90;;;;;;5111972;27;20082;-56
2023/03/16 09:25:49;;;;;;;3.47;0.70;;;16.50;75.20;;;;;;5110851;27;20573;-57
2023/03/16 09:28:16;;;;;;;1.20;0.57;;;16.40;75.00;;;;;;5111831;27;20532;-57
2023/03/16 09:30:43;;;;;;;1.20;0.50;;;16.40;74.70;;;;;;5110988;27;20110;-57
2023/03/16 09:33:09;;;;;;;2.83;0.68;;;16.40;73.70;;;;;;5111497;27;20159;-56
2023/03/16 09:35:36;;;;;;;1.17;0.75;;;16.40;73.90;;;;;;5111112;27;20080;-57
2023/03/16 09:38:03;;;;;;;1.10;0.70;;;16.40;73.50;;;;;;5109603;27;20067;-56
2023/03/16 09:40:30;;;;;;;2.58;0.63;;;16.50;73.50;;;;;;5108451;27;20076;-57
2023/03/16 09:43:33;;;;;;;1.35;0.73;;;16.50;73.30;;;;;;5111125;27;20132;-57
2023/03/16 09:46:07;;;;;;;3.95;0.95;;;16.50;73.30;;;;;;5109020;27;20076;-58
2023/03/16 09:48:36;;;;;;;0.47;0.45;;;16.50;73.90;;;;;;5104471;27;20147;-58
2023/03/16 09:51:06;;;;;;;0.40;0.40;;;16.40;73.50;;;;;;5109113;27;20096;-56
2023/03/16 09:53:39;;;;;;;0.60;0.50;;;16.40;73.20;;;;;;5110432;27;20449;-58
2023/03/16 09:56:24;;;;;;;1.67;0.40;;;16.40;72.20;;;;;;5110378;27;20080;-56
2023/03/16 09:58:50;;;;;;;0.75;0.50;;;16.40;72.40;;;;;;5110619;27;20470;-57
2023/03/16 10:01:37;;;;;;;1.55;0.57;;;16.40;72.40;;;;;;5112684;27;20079;-58
2023/03/16 10:04:20;;;;;;;2.47;0.50;;;16.20;76.40;;;;;;5109093;27;20070;-59
2023/03/16 10:06:59;;;;;;;0.73;0.47;;;16.10;78.00;;;;;;5111931;27;20474;-58
2023/03/16 10:09:32;;;;;;;0.50;0.50;;;16.10;78.80;;;;;;5100900;27;20445;-56
2023/03/16 10:12:02;;;;;;;1.05;0.60;;;16.00;79.30;;;;;;5103281;27;20103;-57
2023/03/16 10:14:54;;;;;;;1.02;0.50;;;15.90;80.00;;;;;;5106002;27;20141;-57
2023/03/16 10:17:30;;;;;;;0.82;0.45;;;15.70;80.70;;;;;;5103147;28;20087;-58
2023/03/16 10:20:07;;;;;;;1.17;0.60;;;15.60;81.10;;;;;;5101369;28;20212;-58
2023/03/16 10:22:39;;;;;;;0.55;0.40;;;15.50;81.10;;;;;;5102269;28;20145;-58
2023/03/16 10:25:18;;;;;;;0.65;0.40;;;15.60;80.30;;;;;;5110024;27;20587;-59
2023/03/16 10:27:45;;;;;;;2.30;0.50;;;15.60;79.10;;;;;;5104323;28;20508;-57
2023/03/16 10:30:18;;;;;;;1.67;0.80;;;15.60;78.20;;;;;;5104069;28;20072;-57
2023/03/16 10:32:45;;;;;;;2.13;0.60;;;15.60;77.60;;;;;;5100312;28;20061;-58
2023/03/16 10:35:54;;;;;;;0.70;0.40;;;15.70;76.40;;;;;;5103221;28;20143;-59
2023/03/16 10:38:29;;;;;;;;;;;15.60;76.70;;;;;;5079923;28;20120;-57
2023/03/16 10:40:59;;;;;;;0.73;0.50;;;15.70;77.60;;;;;;5099881;28;19955;-58
2023/03/16 10:43:27;;;;;;;0.50;0.50;;;15.70;77.50;;;;;;5105158;28;20087;-59
2023/03/16 10:46:01;;;;;;;3.97;0.80;;;15.50;77.30;;;;;;5104141;28;20069;-59
2023/03/16 10:48:31;;;;;;;0.88;0.50;;;15.60;76.40;;;;;;5100337;28;20084;-58
2023/03/16 10:51:00;;;;;;;0.73;0.50;;;15.50;76.80;;;;;;5107086;27;20443;-59
2023/03/16 10:53:31;;;;;;;0.55;0.50;;;15.60;76.50;;;;;;5105726;27;20072;-58
2023/03/16 10:56:00;;;;;;;0.70;0.50;;;15.50;76.30;;;;;;5107084;27;20080;-56
2023/03/16 10:58:34;;;;;;;1.60;0.50;;;15.40;76.60;;;;;;5100678;28;20147;-58
2023/03/16 11:01:02;;;;;;;1.30;0.60;;;15.40;76.60;;;;;;5103430;28;20179;-58
2023/03/16 11:03:31;;;;;;;2.22;0.60;;;15.50;75.80;;;;;;5106534;27;20068;-56
2023/03/16 11:06:16;;;;;;;1.85;0.30;;;15.50;76.10;;;;;;5110996;27;20080;-57
2023/03/16 11:08:44;;;;;;;0.95;0.50;;;15.30;74.50;;;;;;5104921;27;20138;-62
2023/03/16 11:11:16;;;;;;;1.88;0.65;;;15.40;72.80;;;;;;5109259;28;20670;-60
2023/03/16 11:13:47;;;;;;;1.58;0.73;;;15.50;73.00;;;;;;5103573;28;20218;-57
2023/03/16 11:16:42;;;;;;;7.13;0.60;;;15.60;72.60;;;;;;5103775;28;20095;-58
2023/03/16 11:19:28;;;;;;;1.38;0.50;;;15.60;73.40;;;;;;5108216;27;20068;-56
2023/03/16 11:22:08;;;;;;;0.65;0.50;;;15.60;72.40;;;;;;5105881;28;20115;-56
2023/03/16 11:24:38;;;;;;;0.70;0.52;;;15.60;72.30;;;;;;5104441;27;20108;-57
2023/03/16 11:27:21;;;;;;;0.68;0.50;;;15.60;72.50;;;;;;5112861;27;20068;-58
2023/03/16 11:30:05;;;;;;;2.78;0.40;;;15.50;73.70;;;;;;5103347;28;20091;-56
2023/03/16 11:32:46;;;;;;;1.38;0.63;;;15.60;73.60;;;;;;5107058;28;20075;-59
2023/03/16 11:35:18;;;;;;;4.45;0.70;;;15.40;75.90;;;;;;5107432;27;20094;-57
2023/03/16 11:37:50;;;;;;;0.60;0.50;;;15.40;75.90;;;;;;5108924;27;20562;-55
2023/03/16 11:40:23;;;;;;;4.43;0.60;;;15.40;75.60;;;;;;5104600;28;20088;-57
2023/03/16 11:43:11;;;;;;;1.30;0.60;;;15.30;76.00;;;;;;5105258;28;20484;-56
2023/03/16 11:46:09;;;;;;;1.15;0.70;;;15.30;76.70;;;;;;5113765;27;20084;-55
2023/03/16 11:49:10;;;;;;;1.40;0.65;;;15.10;77.00;;;;;;5107667;27;20085;-57
2023/03/16 11:51:47;;;;;;;0.80;0.60;;;15.10;76.90;;;;;;5108237;27;20377;-56
2023/03/16 11:54:33;;;;;;;1.30;0.70;;;15.10;77.50;;;;;;5102687;28;20610;-57
2023/03/16 11:57:19;;;;;;;0.60;0.50;;;15.10;77.00;;;;;;5102244;28;20114;-56
2023/03/16 12:00:02;;;;;;;2.43;0.70;;;15.00;77.10;;;;;;5097894;27;20088;-56
2023/03/16 12:02:37;;;;;;;0.75;0.57;;;15.00;76.70;;;;;;5107545;27;20083;-56
2023/03/16 12:05:22;;;;;;;1.83;0.73;;;14.90;76.40;;;;;;5108003;27;20163;-57
2023/03/16 12:08:17;;;;;;;2.40;0.70;;;14.90;76.50;;;;;;5109739;27;20092;-57
2023/03/16 12:10:50;;;;;;;1.27;0.60;;;14.90;77.30;;;;;;5103135;28;20083;-55
2023/03/16 12:13:29;;;;;;;0.95;0.60;;;14.80;77.30;;;;;;5107490;27;20080;-58
2023/03/16 12:16:00;;;;;;;3.63;0.70;;;14.70;76.30;;;;;;5106257;27;20084;-56
2023/03/16 12:18:36;;;;;;;2.92;0.70;;;14.70;75.90;;;;;;5106130;27;20076;-59
2023/03/16 12:21:19;;;;;;;0.95;0.50;;;14.70;74.60;;;;;;5106615;27;20111;-55
2023/03/16 12:23:55;;;;;;;0.60;0.50;;;14.80;74.30;;;;;;5114040;27;20527;-58
2023/03/16 12:26:28;;;;;;;0.80;0.60;;;14.80;74.10;;;;;;5088990;27;20113;-57
2023/03/16 12:28:58;;;;;;;1.80;0.60;;;14.80;73.80;;;;;;5112977;27;20088;-56
2023/03/16 12:31:44;;;;;;;3.28;0.60;;;14.80;72.90;;;;;;5087933;28;20149;-56
2023/03/16 12:34:58;;;;;;;1.40;0.88;;;14.90;72.80;;;;;;5102834;28;20076;-55
2023/03/16 12:37:53;;;;;;;3.15;0.80;;;14.90;72.70;;;;;;5089930;28;20119;-58
2023/03/16 12:40:34;;;;;;;3.47;0.90;;;14.90;72.80;;;;;;5101661;28;20441;-56
2023/03/16 12:43:19;;;;;;;2.83;0.80;;;14.90;72.50;;;;;;5103877;28;20090;-58
2023/03/16 12:46:07;;;;;;;2.42;1.00;;;14.90;72.20;;;;;;5107804;27;20469;-56
2023/03/16 12:48:47;;;;;;;0.93;0.80;;;14.90;72.00;;;;;;5103285;28;20076;-57
2023/03/16 12:51:14;;;;;;;2.97;0.88;;;14.90;71.90;;;;;;5111083;27;20509;-57
2023/03/16 12:53:52;;;;;;;1.35;0.90;;;14.90;71.30;;;;;;5110567;27;20563;-58
2023/03/16 12:56:45;;;;;;;2.85;1.13;;;14.90;70.80;;;;;;5102283;28;20094;-58
2023/03/16 12:59:19;;;;;;;3.25;1.20;;;14.90;70.30;;;;;;5086209;28;20110;-61
2023/03/16 13:01:51;;;;;;;3.72;1.50;;;14.90;69.90;;;;;;5104608;28;20079;-56
2023/03/16 13:04:33;;;;;;;5.22;1.90;;;14.90;69.30;;;;;;5102261;28;20064;-56